Overview Statistics Trail Chart Weather Telemetry Raw packets
 

This is the latest recevied weather packets stored in our database for station/object K6CEG. If no packets are shown the sender has not sent any weather packets the latest 10 day(s).

<< 76 77 78 79 80 81 82 >>
Time Temp. Humidity Pressure Rain* Wind** Luminosity Snow
1788127039 33.89° C 40% 1013.1 hPa 0 mm - 287 W/m² -
1788126734 33.33° C 40% 1013.1 hPa 0 mm - 108 W/m² -
1788126429 33.33° C 41% 1013.2 hPa 0 mm - 80 W/m² -
1788126129 33.89° C 40% 1013.3 hPa 0 mm - 443 W/m² -
1788125828 34.44° C 38% 1013.3 hPa 0 mm - 463 W/m² -
1788125523 34.44° C 38% 1013.3 hPa 0 mm - 505 W/m² -
1788125219 33.33° C 40% 1013.4 hPa 0 mm - 638 W/m² -
1788124915 33.89° C 40% 1013.3 hPa 0 mm - 634 W/m² -
1788124614 33.89° C 39% 1013.4 hPa 0 mm - 615 W/m² -
1788124313 34.44° C 39% 1013.5 hPa 0 mm - 381 W/m² -
1788124009 33.89° C 40% 1013.4 hPa 0 mm - 487 W/m² -
1788123708 33.89° C 40% 1013.6 hPa 0 mm - 620 W/m² -
1788123406 33.89° C 39% 1013.4 hPa 0 mm - 666 W/m² -
1788123101 34.44° C 39% 1013.4 hPa 0 mm - 594 W/m² -
1788122801 33.89° C 39% 1013.6 hPa 0 mm - 652 W/m² -
1788122500 33.89° C 40% 1013.4 hPa 0 mm - 638 W/m² -
1788122196 33.89° C 37% 1013.7 hPa 0 mm - 609 W/m² -
1788121897 34.44° C 36% 1013.7 hPa 0 mm - 644 W/m² -
1788121596 35° C 35% 1013.5 hPa 0 mm - 627 W/m² -
1788121292 34.44° C 37% 1013.7 hPa 0 mm - 681 W/m² -
1788120992 33.89° C 37% 1013.7 hPa 0 mm - 672 W/m² -
1788120687 34.44° C 37% 1013.8 hPa 0 mm - 668 W/m² -
1788120382 33.33° C 38% 1013.6 hPa 0 mm - 695 W/m² -
1788120081 33.89° C 38% 1013.7 hPa 0 mm - 672 W/m² -
1788119777 33.33° C 38% 1013.9 hPa 0 mm - 661 W/m² -

* Rain latest hour (hover to see other rain measurements)
** Current wind speed in m/s (hover to see current wind gust speed)